nws-alerts: Checking more than four warning/county codes can delay the loading of your pages. You should use a cron job to get the data.

Nearby METAR Reports

 

KKLS - Kelso Longveiw, Washington, USA
Distance from station: ESE 7mi, 11km
Updated: Fri, 17-Aug-2018 10:56pm PDT
Clear
Clear
 Wind from NNW
Wind: NNW 3 mph , 6 km/h
Temperature: 61°F , 16°C
Dew Point: 52°F , 11°C
Humidity: 72%
Barometer: 1024 hPa
Clouds: Clear
Visibility: 10 miles , 16 km
2018/08/18 05:56 KKLS 180556Z AUTO 34003KT 10SM CLR 16/11 A3024 RMK AO2 SLP243 T01560111 10239 20156 50007
KSPB - Scappoose, Oregon, USA
Distance from station: SSE 29mi, 46km
Updated: Fri, 17-Aug-2018 10:53pm PDT
Clear
Clear
 Wind from NW
Wind: NW 8 mph , 13 km/h
Temperature: 61°F , 16°C
Dew Point: 48°F , 9°C
Humidity: 63%
Barometer: 1022.7 hPa
Clouds: Clear
Visibility: 10 miles , 16 km
2018/08/18 05:53 KSPB 180553Z AUTO 32007KT 10SM CLR 16/09 A3020 RMK AO2 SLP226 T01610094 10272 20161 50012
 
KCLS - Chehalis Central, Washington, USA
Distance from station: N 36mi, 58km
Updated: Fri, 17-Aug-2018 11:35pm PDT
Mostly cloudy
Mostly cloudy
 Wind from calm
Wind: Calm
Temperature: 55°F , 13°C
Dew Point: 54°F , 12°C
Humidity: 94%
Barometer: 1023.7 hPa
Clouds: Mostly cloudy
Visibility: 10 miles , 16 km
Cloud details: Few Clouds 4200 ft
Mostly cloudy 6000 ft
2018/08/18 06:35 KCLS 180635Z AUTO 00000KT 10SM FEW042 BKN060 13/12 A3023 RMK AO2
KAST - Astoria, Oregon, USA
Distance from station: W 41mi, 66km
Updated: Fri, 17-Aug-2018 10:55pm PDT
Mostly cloudy
Mostly cloudy
 Wind from W
Wind: W 6 mph , 9 km/h
Temperature: 57°F , 14°C
Dew Point: 54°F , 12°C
Humidity: 88%
Barometer: 1024.4 hPa
Clouds: Mostly cloudy
Visibility: 10 miles , 16 km
Cloud details: Mostly cloudy 1700 ft
2018/08/18 05:55 KAST 180555Z AUTO 27005KT 10SM BKN017 14/12 A3025 RMK AO2 SLP244 T01390122 10189 20133 50001
 
KVUO - Vancouver, Washington, USA
Distance from station: SSE 42mi, 68km
Updated: Fri, 17-Aug-2018 10:53pm PDT
Clear
Clear
 Wind from NNW
Wind: NNW 6 mph , 9 km/h
Temperature: 64°F , 18°C
Dew Point: 52°F , 11°C
Humidity: 64%
Barometer: 1022.7 hPa
Clouds: Clear
Visibility: 10 miles , 16 km
2018/08/18 05:53 KVUO 180553Z AUTO 33005KT 10SM CLR 18/11 A3020 RMK AO2 SLP227 T01780111 10272 20178 51015
KHIO - Hillsboro/Portld, Oregon, USA
Distance from station: S 43mi, 69km
Updated: Fri, 17-Aug-2018 10:53pm PDT
Clear
Clear
 Wind from NW
Wind: NW 12 mph , 19 km/h
Temperature: 61°F , 16°C
Dew Point: 46°F , 8°C
Humidity: 59%
Barometer: 1022.7 hPa
Clouds: Clear
Visibility: 10 miles , 16 km
2018/08/18 05:53 KHIO 180553Z AUTO 32010KT 10SM CLR 16/08 A3020 RMK AO2 SLP226 T01610083 10283 20161 50013
 
KPDX - Portland, Oregon, USA
Distance from station: SSE 44mi, 70km
Updated: Fri, 17-Aug-2018 10:53pm PDT
Clear
Clear
 Wind from NW
Wind: NW 8 mph , 13 km/h
Temperature: 64°F , 18°C
Dew Point: 50°F , 10°C
Humidity: 60%
Barometer: 1023 hPa
Clouds: Clear
Visibility: 10 miles , 16 km
2018/08/18 05:53 KPDX 180553Z 32007KT 10SM CLR 18/10 A3021 RMK AO2 SLP228 T01830100 10278 20183 51016